createdAt,value
2023-04-02T00:02:26.962Z,4.47
2023-04-02T00:05:52.410Z,4.31
2023-04-02T00:08:58.847Z,4.35
2023-04-02T00:12:15.939Z,4.36
2023-04-02T00:15:18.745Z,4.38
2023-04-02T00:18:23.077Z,4.25
2023-04-02T00:21:28.082Z,4.36
2023-04-02T00:24:30.897Z,4.50
2023-04-02T00:27:35.210Z,4.37
2023-04-02T00:30:37.994Z,4.38
2023-04-02T00:33:40.834Z,4.39
2023-04-02T00:36:46.595Z,4.26
2023-04-02T00:39:49.834Z,4.38
2023-04-02T00:42:55.715Z,4.29
2023-04-02T00:46:01.401Z,4.31
2023-04-02T00:49:10.785Z,4.38
2023-04-02T00:52:16.844Z,4.33
2023-04-02T00:55:23.444Z,4.34
2023-04-02T00:58:30.143Z,4.28
2023-04-02T01:01:37.791Z,4.27
2023-04-02T01:04:40.910Z,4.30
2023-04-02T01:08:06.027Z,4.42
2023-04-02T01:11:17.256Z,4.53
2023-04-02T01:14:34.823Z,4.46
2023-04-02T01:17:58.464Z,4.44
2023-04-02T01:21:12.381Z,4.31
2023-04-02T01:24:16.030Z,4.44
2023-04-02T01:27:22.558Z,4.38
2023-04-02T01:30:27.405Z,4.40
2023-04-02T01:33:33.527Z,4.36
2023-04-02T01:36:42.301Z,4.37
2023-04-02T01:39:57.783Z,4.40
2023-04-02T01:43:09.412Z,4.49
2023-04-02T01:46:29.526Z,4.40
2023-04-02T01:49:32.374Z,4.29
2023-04-02T01:52:50.580Z,4.26
2023-04-02T01:55:55.997Z,4.48
2023-04-02T01:58:59.702Z,4.32
2023-04-02T02:02:05.763Z,4.28
2023-04-02T02:05:14.868Z,4.42
2023-04-02T02:08:34.607Z,4.34
2023-04-02T02:11:37.570Z,4.35
2023-04-02T02:14:40.549Z,4.42
2023-04-02T02:17:45.207Z,4.47
2023-04-02T02:20:48.430Z,4.36
2023-04-02T02:23:51.351Z,4.30
2023-04-02T02:27:07.504Z,4.44
2023-04-02T02:30:16.850Z,4.51
2023-04-02T02:33:26.274Z,4.50
2023-04-02T02:36:34.951Z,4.32
2023-04-02T02:39:43.353Z,4.31
2023-04-02T02:42:52.027Z,4.26
2023-04-02T02:45:55.816Z,4.51
2023-04-02T02:49:04.275Z,4.39
2023-04-02T02:52:16.243Z,4.28
2023-04-02T02:55:23.043Z,4.20
2023-04-02T02:58:46.812Z,4.33
2023-04-02T03:01:49.952Z,4.48
2023-04-02T03:04:56.252Z,4.40
2023-04-02T03:08:01.431Z,4.37
2023-04-02T03:11:09.205Z,4.28
2023-04-02T03:14:21.320Z,4.33
2023-04-02T03:17:32.527Z,4.35
2023-04-02T03:20:44.830Z,4.53
2023-04-02T03:23:52.272Z,4.40
2023-04-02T03:27:00.373Z,4.52
2023-04-02T03:30:15.910Z,4.47
2023-04-02T03:33:25.118Z,4.42
2023-04-02T03:36:34.766Z,4.44
2023-04-02T03:39:42.618Z,4.51
2023-04-02T03:42:49.082Z,4.32
2023-04-02T03:45:56.563Z,4.35
2023-04-02T03:49:03.570Z,4.35
2023-04-02T03:52:12.619Z,4.35
2023-04-02T03:55:19.105Z,4.51
2023-04-02T03:58:27.020Z,4.19
2023-04-02T04:01:35.472Z,4.33
2023-04-02T04:04:41.926Z,4.30
2023-04-02T04:07:46.250Z,4.31
2023-04-02T04:10:54.181Z,4.29
2023-04-02T04:14:02.255Z,4.24
2023-04-02T04:17:15.712Z,4.24
2023-04-02T04:20:23.165Z,4.30
2023-04-02T04:23:31.541Z,4.26
2023-04-02T04:26:44.487Z,4.38
2023-04-02T04:29:55.918Z,4.38
2023-04-02T04:33:04.136Z,4.41
2023-04-02T04:36:19.378Z,4.43
2023-04-02T04:39:30.545Z,4.46
2023-04-02T04:42:36.271Z,4.43
2023-04-02T04:45:43.580Z,4.29
2023-04-02T04:48:53.316Z,4.39
2023-04-02T04:51:59.935Z,4.37
2023-04-02T04:55:05.203Z,4.47
2023-04-02T04:58:18.075Z,4.49
2023-04-02T05:01:26.410Z,4.45
2023-04-02T05:04:34.636Z,4.55
2023-04-02T05:07:45.957Z,4.40
2023-04-02T05:10:53.340Z,4.43
2023-04-02T05:14:00.393Z,4.34
2023-04-02T05:17:07.673Z,4.41
2023-04-02T05:20:19.145Z,4.52
2023-04-02T05:23:27.333Z,4.54
2023-04-02T05:26:38.853Z,4.55
2023-04-02T05:29:46.284Z,4.46
2023-04-02T05:32:56.179Z,4.39
2023-04-02T05:36:04.512Z,4.51
2023-04-02T05:39:11.419Z,4.51
2023-04-02T05:42:23.499Z,4.50
2023-04-02T05:45:31.912Z,4.56
2023-04-02T05:48:38.582Z,4.55
2023-04-02T05:51:46.768Z,4.47
2023-04-02T05:54:52.603Z,4.53
2023-04-02T05:58:25.472Z,4.72
2023-04-02T06:01:33.674Z,4.69
2023-04-02T06:04:43.705Z,4.71
2023-04-02T06:07:51.134Z,4.65
2023-04-02T06:10:59.589Z,4.80
2023-04-02T06:14:05.696Z,4.99
2023-04-02T06:17:10.488Z,5.03
2023-04-02T06:20:17.807Z,5.29
2023-04-02T06:23:24.510Z,5.60
2023-04-02T06:26:33.176Z,5.40
2023-04-02T06:29:41.588Z,5.31
2023-04-02T06:32:44.375Z,5.21
2023-04-02T06:35:48.690Z,5.40
2023-04-02T06:38:54.603Z,5.29
2023-04-02T06:42:01.488Z,5.38
2023-04-02T06:45:07.176Z,5.39
2023-04-02T06:48:16.315Z,5.35
2023-04-02T06:51:23.919Z,5.50
2023-04-02T06:54:26.774Z,5.70
2023-04-02T06:57:32.685Z,5.94
2023-04-02T07:00:38.785Z,6.67
2023-04-02T07:03:42.126Z,6.09
2023-04-02T07:06:45.001Z,6.08
2023-04-02T07:09:47.709Z,5.98
2023-04-02T07:12:50.609Z,5.92
2023-04-02T07:15:56.765Z,5.77
2023-04-02T07:19:00.335Z,5.86
2023-04-02T07:22:03.208Z,5.87
2023-04-02T07:25:06.535Z,6.06
2023-04-02T07:28:09.295Z,5.96
2023-04-02T07:31:18.952Z,6.03
2023-04-02T07:34:21.715Z,6.15
2023-04-02T07:37:24.587Z,6.18
2023-04-02T07:40:27.390Z,6.16
2023-04-02T07:43:30.241Z,6.12
2023-04-02T07:46:34.406Z,6.37
2023-04-02T07:49:37.312Z,6.27
2023-04-02T07:52:42.197Z,6.18
2023-04-02T07:55:44.884Z,6.31
2023-04-02T07:58:48.293Z,6.10
2023-04-02T08:01:53.017Z,6.15
2023-04-02T08:04:55.792Z,6.06
2023-04-02T08:07:58.644Z,6.01
2023-04-02T08:11:01.382Z,5.91
2023-04-02T08:14:04.257Z,6.21
2023-04-02T08:17:08.387Z,6.14
2023-04-02T08:20:16.937Z,6.39
2023-04-02T08:23:20.045Z,6.32
2023-04-02T08:26:22.745Z,6.24
2023-04-02T08:29:25.888Z,6.46
2023-04-02T08:32:30.046Z,6.62
2023-04-02T08:35:33.060Z,6.45
2023-04-02T08:38:38.860Z,6.44
2023-04-02T08:41:47.092Z,6.71
2023-04-02T08:44:58.163Z,7.42
2023-04-02T08:48:03.576Z,7.92
2023-04-02T08:51:11.271Z,8.33
2023-04-02T08:54:20.274Z,8.69
2023-04-02T08:57:33.677Z,8.71
2023-04-02T09:00:40.466Z,8.90
2023-04-02T09:03:48.301Z,8.73
2023-04-02T09:06:54.529Z,8.62
2023-04-02T09:09:58.195Z,8.16
2023-04-02T09:13:04.649Z,7.68
2023-04-02T09:16:11.249Z,7.72
2023-04-02T09:19:20.799Z,7.96
2023-04-02T09:22:26.737Z,8.48
2023-04-02T09:25:31.614Z,8.60
2023-04-02T09:28:34.477Z,8.52
2023-04-02T09:31:40.823Z,9.04
2023-04-02T09:34:45.566Z,9.78
2023-04-02T09:38:17.397Z,10.09
2023-04-02T09:41:27.213Z,10.30
2023-04-02T09:44:31.529Z,11.05
2023-04-02T09:47:37.391Z,11.95
2023-04-02T09:50:41.845Z,12.38
2023-04-02T09:53:50.401Z,12.59
2023-04-02T09:57:04.283Z,11.89
2023-04-02T10:00:30.617Z,11.66
2023-04-02T10:03:36.072Z,10.82
2023-04-02T10:06:50.400Z,11.48
2023-04-02T10:09:59.706Z,11.91
2023-04-02T10:13:05.954Z,11.86
2023-04-02T10:16:13.999Z,11.97
2023-04-02T10:19:24.095Z,11.72
2023-04-02T10:22:30.358Z,11.90
2023-04-02T10:25:45.705Z,12.54
2023-04-02T10:29:07.046Z,12.96
2023-04-02T10:32:18.868Z,13.00
2023-04-02T10:35:32.153Z,12.74
2023-04-02T10:38:51.294Z,11.53
2023-04-02T10:42:02.716Z,11.44
2023-04-02T10:45:19.681Z,11.26
2023-04-02T10:48:27.391Z,10.84
2023-04-02T10:51:41.125Z,11.13
2023-04-02T10:54:49.597Z,10.90
2023-04-02T10:57:54.833Z,10.86
2023-04-02T11:01:03.455Z,10.60
2023-04-02T11:04:18.560Z,10.74
2023-04-02T11:07:27.074Z,10.31
2023-04-02T11:10:35.172Z,10.19
2023-04-02T11:13:46.770Z,11.66
2023-04-02T11:16:54.441Z,12.46
2023-04-02T11:20:40.612Z,12.91
2023-04-02T11:23:59.704Z,12.60
2023-04-02T11:27:16.108Z,13.06
2023-04-02T11:30:25.512Z,13.18
2023-04-02T11:33:46.052Z,12.81
2023-04-02T11:37:31.802Z,12.72
2023-04-02T11:40:50.898Z,12.54
2023-04-02T11:44:02.838Z,12.24
2023-04-02T11:47:22.832Z,11.75
2023-04-02T11:50:31.375Z,11.47
2023-04-02T11:53:36.084Z,11.38
2023-04-02T11:56:48.244Z,10.88
2023-04-02T12:00:18.354Z,10.42
2023-04-02T12:03:42.954Z,10.26
2023-04-02T12:07:05.943Z,10.82
2023-04-02T12:10:18.244Z,11.91
2023-04-02T12:13:21.736Z,12.09
2023-04-02T12:16:31.436Z,11.92
2023-04-02T12:19:34.653Z,11.33
2023-04-02T12:22:40.675Z,11.09
2023-04-02T12:25:52.868Z,11.10
2023-04-02T12:28:56.308Z,10.56
2023-04-02T12:32:01.564Z,11.23
2023-04-02T12:35:08.274Z,11.53
2023-04-02T12:38:21.011Z,11.34
2023-04-02T12:41:27.305Z,11.30
2023-04-02T12:44:31.832Z,11.02
2023-04-02T12:47:36.523Z,10.50
2023-04-02T12:50:41.747Z,10.79
2023-04-02T12:53:51.594Z,10.77
2023-04-02T12:56:56.709Z,10.90
2023-04-02T13:00:01.530Z,11.61
2023-04-02T13:03:19.176Z,11.47
2023-04-02T13:06:24.326Z,11.05
2023-04-02T13:09:34.680Z,11.00
2023-04-02T13:12:39.353Z,10.82
2023-04-02T13:15:43.806Z,10.75
2023-04-02T13:18:49.961Z,11.15
2023-04-02T13:21:53.607Z,10.87
2023-04-02T13:24:57.453Z,10.57
2023-04-02T13:28:00.198Z,10.50
2023-04-02T13:31:03.173Z,10.60
2023-04-02T13:34:07.580Z,10.53
2023-04-02T13:37:13.039Z,10.46
2023-04-02T13:40:17.888Z,10.18
2023-04-02T13:43:21.692Z,10.17
2023-04-02T13:46:27.876Z,10.31
2023-04-02T13:49:32.838Z,10.88
2023-04-02T13:52:35.995Z,11.06
2023-04-02T13:55:42.407Z,10.89
2023-04-02T13:58:46.549Z,10.24
2023-04-02T14:01:51.185Z,10.52
2023-04-02T14:05:12.083Z,11.11
2023-04-02T14:08:23.694Z,10.53
2023-04-02T14:11:37.200Z,10.57
2023-04-02T14:14:54.117Z,10.74
2023-04-02T14:18:27.852Z,10.64
2023-04-02T14:21:40.983Z,10.01
2023-04-02T14:24:54.663Z,9.80
2023-04-02T14:28:06.972Z,9.83
2023-04-02T14:31:20.495Z,10.26
2023-04-02T14:34:32.419Z,10.42
2023-04-02T14:37:43.730Z,10.19
2023-04-02T14:40:51.464Z,9.94
2023-04-02T14:43:57.697Z,10.24
2023-04-02T14:47:09.667Z,10.01
2023-04-02T14:50:17.584Z,9.83
2023-04-02T14:53:27.733Z,9.78
2023-04-02T14:56:39.195Z,9.87
2023-04-02T14:59:53.489Z,9.84
2023-04-02T15:03:00.387Z,9.42
2023-04-02T15:06:10.549Z,9.37
2023-04-02T15:09:20.927Z,9.50
2023-04-02T15:12:27.765Z,9.38
2023-04-02T15:15:41.437Z,9.18
2023-04-02T15:18:44.376Z,9.41
2023-04-02T15:22:08.031Z,9.58
2023-04-02T15:25:27.434Z,9.58
2023-04-02T15:28:36.143Z,9.37
2023-04-02T15:31:45.420Z,8.84
2023-04-02T15:34:53.474Z,8.83
2023-04-02T15:38:03.710Z,8.90
2023-04-02T15:41:14.737Z,9.02
2023-04-02T15:44:18.267Z,9.06
2023-04-02T15:47:27.474Z,8.78
2023-04-02T15:50:44.148Z,8.35
2023-04-02T15:53:57.049Z,8.54
2023-04-02T15:57:14.782Z,8.59
2023-04-02T16:00:30.504Z,8.35
2023-04-02T16:03:59.388Z,8.42
2023-04-02T16:07:18.144Z,8.22
2023-04-02T16:10:38.035Z,8.19
2023-04-02T16:13:45.581Z,8.00
2023-04-02T16:16:51.100Z,7.98
2023-04-02T16:19:58.209Z,8.02
2023-04-02T16:23:06.501Z,7.75
2023-04-02T16:26:23.192Z,7.94
2023-04-02T16:29:54.662Z,8.06
2023-04-02T16:33:08.552Z,7.91
2023-04-02T16:36:27.454Z,7.69
2023-04-02T16:39:40.267Z,7.50
2023-04-02T16:42:51.721Z,7.44
2023-04-02T16:46:02.157Z,7.51
2023-04-02T16:49:18.220Z,7.24
2023-04-02T16:52:35.394Z,7.17
2023-04-02T16:55:48.603Z,7.06
2023-04-02T16:58:58.876Z,6.93
2023-04-02T17:02:12.316Z,7.05
2023-04-02T17:05:29.477Z,6.94
2023-04-02T17:08:39.772Z,6.86
2023-04-02T17:11:49.696Z,6.90
2023-04-02T17:14:55.921Z,6.82
2023-04-02T17:18:02.957Z,6.74
2023-04-02T17:21:08.631Z,6.69
2023-04-02T17:24:22.363Z,6.78
2023-04-02T17:27:30.414Z,6.53
2023-04-02T17:30:38.992Z,6.47
2023-04-02T17:33:45.213Z,6.31
2023-04-02T17:36:57.572Z,6.30
2023-04-02T17:40:18.828Z,6.31
2023-04-02T17:43:37.856Z,6.32
2023-04-02T17:46:49.708Z,6.24
2023-04-02T17:50:06.459Z,6.21
2023-04-02T17:53:19.285Z,6.16
2023-04-02T17:56:43.775Z,6.09
2023-04-02T17:59:55.802Z,6.03
2023-04-02T18:03:19.126Z,5.82
2023-04-02T18:06:32.406Z,5.77
2023-04-02T18:09:45.611Z,5.57
2023-04-02T18:12:57.335Z,5.64
2023-04-02T18:16:11.751Z,5.67
2023-04-02T18:19:19.199Z,5.62
2023-04-02T18:22:34.313Z,5.53
2023-04-02T18:25:46.924Z,5.49
2023-04-02T18:28:59.566Z,5.46
2023-04-02T18:32:14.076Z,5.36
2023-04-02T18:35:24.654Z,5.34
2023-04-02T18:38:40.008Z,5.27
2023-04-02T18:41:54.788Z,5.14
2023-04-02T18:45:04.649Z,5.08
2023-04-02T18:48:17.368Z,5.01
2023-04-02T18:51:22.988Z,5.15
2023-04-02T18:54:32.893Z,5.05
2023-04-02T18:57:39.084Z,4.97
2023-04-02T19:00:45.084Z,4.97
2023-04-02T19:03:52.708Z,4.79
2023-04-02T19:07:03.506Z,4.81
2023-04-02T19:10:22.576Z,4.87
2023-04-02T19:13:25.318Z,4.89
2023-04-02T19:16:41.137Z,4.91
2023-04-02T19:19:53.032Z,4.80
2023-04-02T19:23:03.084Z,4.63
2023-04-02T19:26:10.033Z,4.61
2023-04-02T19:29:23.540Z,4.60
2023-04-02T19:32:37.743Z,4.66
2023-04-02T19:35:47.604Z,4.66
2023-04-02T19:39:04.064Z,4.49
2023-04-02T19:42:17.041Z,4.34
2023-04-02T19:45:33.465Z,4.22
2023-04-02T19:48:43.874Z,4.14
2023-04-02T19:51:46.801Z,4.13
2023-04-02T19:54:49.498Z,4.02
2023-04-02T19:57:57.829Z,4.26
2023-04-02T20:01:07.151Z,4.10
2023-04-02T20:04:10.239Z,3.92
2023-04-02T20:07:13.042Z,3.92
2023-04-02T20:10:15.973Z,3.95
2023-04-02T20:13:20.349Z,3.89
2023-04-02T20:16:23.779Z,3.93
2023-04-02T20:19:26.733Z,3.87
2023-04-02T20:22:29.706Z,3.84
2023-04-02T20:25:32.476Z,3.92
2023-04-02T20:28:36.814Z,3.79
2023-04-02T20:31:39.533Z,3.64
2023-04-02T20:34:42.440Z,3.54
2023-04-02T20:37:45.827Z,3.74
2023-04-02T20:40:52.860Z,3.57
2023-04-02T20:43:57.527Z,3.47
2023-04-02T20:47:00.356Z,3.49
2023-04-02T20:50:03.230Z,3.31
2023-04-02T20:53:06.483Z,3.49
2023-04-02T20:56:10.831Z,3.41
2023-04-02T20:59:15.073Z,3.35
2023-04-02T21:02:18.161Z,3.48
2023-04-02T21:05:21.032Z,3.52
2023-04-02T21:08:24.282Z,3.43
2023-04-02T21:11:27.245Z,3.43
2023-04-02T21:14:36.246Z,3.15
2023-04-02T21:17:39.025Z,3.19
2023-04-02T21:20:43.047Z,3.18
2023-04-02T21:23:46.783Z,3.22
2023-04-02T21:26:49.649Z,3.20
2023-04-02T21:29:54.203Z,3.06
2023-04-02T21:32:57.227Z,3.08
2023-04-02T21:36:07.244Z,2.89
2023-04-02T21:39:12.493Z,3.04
2023-04-02T21:42:16.540Z,3.15
2023-04-02T21:45:20.988Z,3.08
2023-04-02T21:48:23.793Z,2.85
2023-04-02T21:51:27.909Z,2.76
2023-04-02T21:54:30.795Z,2.83
2023-04-02T21:57:33.558Z,2.82
2023-04-02T22:00:38.427Z,2.94
2023-04-02T22:03:41.653Z,2.90
2023-04-02T22:06:45.689Z,2.75
2023-04-02T22:09:48.620Z,2.81
2023-04-02T22:12:51.982Z,2.84
2023-04-02T22:16:01.226Z,2.76
2023-04-02T22:19:06.050Z,2.78
2023-04-02T22:22:08.909Z,2.94
2023-04-02T22:25:11.773Z,2.82
2023-04-02T22:28:14.503Z,2.65
2023-04-02T22:31:21.533Z,2.59
2023-04-02T22:34:24.340Z,2.42
2023-04-02T22:37:27.219Z,2.41
2023-04-02T22:40:30.345Z,2.51
2023-04-02T22:43:33.218Z,2.50
2023-04-02T22:46:37.614Z,2.55
2023-04-02T22:49:40.380Z,2.40
2023-04-02T22:52:43.572Z,2.32
2023-04-02T22:55:46.647Z,2.41
2023-04-02T22:58:49.928Z,2.44
2023-04-02T23:01:54.346Z,2.35
2023-04-02T23:04:57.349Z,2.40
2023-04-02T23:08:00.894Z,2.46
2023-04-02T23:11:05.691Z,2.36
2023-04-02T23:14:08.656Z,2.32
2023-04-02T23:17:13.094Z,2.30
2023-04-02T23:20:16.345Z,2.28
2023-04-02T23:23:19.281Z,2.32
2023-04-02T23:26:23.530Z,2.26
2023-04-02T23:29:26.503Z,2.27
2023-04-02T23:32:33.295Z,2.19
2023-04-02T23:35:36.517Z,2.23
2023-04-02T23:38:39.605Z,2.31
2023-04-02T23:41:43.873Z,2.22
2023-04-02T23:44:46.576Z,2.19
2023-04-02T23:47:50.936Z,2.17
2023-04-02T23:50:53.819Z,2.21
2023-04-02T23:53:57.072Z,2.20
2023-04-02T23:57:00.041Z,2.12
